Ursa Minor — ICGH — position and weather

sailwx.info

Track history (hours):
 
Tides and Currents Weather Stations Pressure Air Temp Water Temp Dewpoint Dewpoint Depression Visibility Wind Speed Wind Dir Waves Ship Positions

Ursa Minor

Last reported at 2014-Oct-19 09:18 UTC. Time now 2014-Oct-21 19:57 UTC.
Position N 38°09' E 015°35'.

Length 205 m; draft 8.4 m.

MMSI: 247082300.

Date/timePositionNaut miles runAvg speedWind from/ knotsBaromVisibWave heightAir tempDewpointWater temp
2014-Oct-19 09:18N 38°09' E 015°35'40012.6
2014-Oct-18 01:32N 43°22' E 010°07'1212.1
2014-Oct-18 00:33N 43°32' E 009°58'1211.9
2014-Oct-17 23:33N 43°41' E 009°47'1211.7
2014-Oct-17 22:33N 43°50' E 009°36'1211.8
2014-Oct-17 21:33N 43°58' E 009°25'1211.5
2014-Oct-17 20:33N 44°07' E 009°14'1111.5
2014-Oct-17 19:33N 44°15' E 009°03'1010.5
2014-Oct-17 18:33N 44°24' E 008°55'2 2.1
2014-Oct-17 17:33N 44°24' E 008°52'0 0.0
2014-Oct-17 16:33N 44°24' E 008°52'0 0.0
2014-Oct-17 15:33N 44°24' E 008°52'0 0.0
2014-Oct-17 14:15N 44°24' E 008°52'0 0.0
2014-Oct-17 13:30N 44°24' E 008°52'0 0.0
2014-Oct-17 12:33N 44°24' E 008°52'0 0.0
2014-Oct-17 11:30N 44°24' E 008°52'0 0.0
2014-Oct-17 10:33N 44°24' E 008°52'0 0.0
2014-Oct-17 09:33N 44°24' E 008°52'0 0.0
2014-Oct-17 08:33N 44°24' E 008°52'0 0.0
2014-Oct-17 07:33N 44°24' E 008°52'0 0.0
2014-Oct-17 06:33N 44°24' E 008°52'0 0.0
2014-Oct-17 05:33N 44°24' E 008°52'0 0.0
2014-Oct-17 04:33N 44°24' E 008°52'0 0.0
2014-Oct-17 03:33N 44°24' E 008°52'0 0.0
2014-Oct-17 02:34N 44°24' E 008°52'0 0.0
2014-Oct-17 01:34N 44°24' E 008°52'0 0.0
2014-Oct-17 00:34N 44°24' E 008°52'0 0.0
2014-Oct-16 23:34N 44°24' E 008°52'0 0.2
2014-Oct-16 22:33N 44°24' E 008°52'3 2.9
2014-Oct-16 21:34N 44°23' E 008°56'9 8.8
2014-Oct-16 20:33N 44°16' E 009°04'1312.7
2014-Oct-16 19:33N 44°07' E 009°16'1313.0
2014-Oct-16 18:33N 43°57' E 009°28'1312.8
2014-Oct-16 17:34N 43°48' E 009°39'1313.0
2014-Oct-16 16:34N 43°38' E 009°51'1312.7
2014-Oct-16 15:33N 43°28' E 010°02'1312.7
2014-Oct-16 14:34N 43°17' E 010°11'1312.4
2014-Oct-16 13:32N 43°06' E 010°20'21112.4
2014-Oct-15 20:28N 40°40' E 013°45'1212.6
2014-Oct-15 19:33N 40°33' E 013°57'1212.4
2014-Oct-15 18:33N 40°24' E 014°09'13412.9
2014-Oct-15 08:07N 38°29' E 015°36'912.4
2014-Oct-15 07:24N 38°21' E 015°42'1111.0
2014-Oct-15 06:26N 38°11' E 015°37'  
2014-Oct-12 06:33N 38°08' E 015°35'13212.0
2014-Oct-11 19:33N 40°08' E 014°20'1312.8
2014-Oct-11 18:32N 40°19' E 014°12'1312.8
2014-Oct-11 17:33N 40°29' E 014°03'25012.4
2014-Oct-10 21:28N 43°25' E 010°05'1112.0
2014-Oct-10 20:34N 43°33' E 009°54'1212.2
2014-Oct-10 19:34N 43°43' E 009°44'1212.1
2014-Oct-10 18:34N 43°52' E 009°34'1312.7
2014-Oct-10 17:33N 44°01' E 009°22'1212.4
2014-Oct-10 16:34N 44°10' E 009°09'1211.9
2014-Oct-10 15:33N 44°19' E 008°58'7 6.3
2014-Oct-10 14:28N 44°24' E 008°52'0 0.0
2014-Oct-10 12:19N 44°24' E 008°52'0 0.0
2014-Oct-10 11:31N 44°24' E 008°52'0 0.0
2014-Oct-10 10:30N 44°24' E 008°52'0 0.0
2014-Oct-10 09:29N 44°24' E 008°52'0 0.0
2014-Oct-10 08:33N 44°24' E 008°52'0 0.0
2014-Oct-10 07:33N 44°24' E 008°52'0 0.2
2014-Oct-10 06:33N 44°24' E 008°52'1 0.7
2014-Oct-10 05:33N 44°24' E 008°53'8 7.5
2014-Oct-10 04:33N 44°20' E 009°01'2 1.6
2014-Oct-10 03:33N 44°19' E 008°59'4 4.1
2014-Oct-10 02:33N 44°16' E 009°04'1110.8
2014-Oct-10 01:33N 44°08' E 009°14'  
Track history (hours):
 
Tides and Currents Weather Stations Pressure Air Temp Water Temp Dewpoint Dewpoint Depression Visibility Wind Speed Wind Dir Waves Ship Positions

Ursa Minor

Last reported at 2014-Oct-19 09:18 UTC. Time now 2014-Oct-21 19:57 UTC.
Position N 38°09' E 015°35'.

Length 205 m; draft 8.4 m.

MMSI: 247082300.

Date/timePositionNaut miles runAvg speedWind from/ knotsBaromVisibWave heightAir tempDewpointWater temp
2014-Oct-19 09:18N 38°09' E 015°35'40012.6
2014-Oct-18 01:32N 43°22' E 010°07'1212.1
2014-Oct-18 00:33N 43°32' E 009°58'1211.9
2014-Oct-17 23:33N 43°41' E 009°47'1211.7
2014-Oct-17 22:33N 43°50' E 009°36'1211.8
2014-Oct-17 21:33N 43°58' E 009°25'1211.5
2014-Oct-17 20:33N 44°07' E 009°14'1111.5
2014-Oct-17 19:33N 44°15' E 009°03'1010.5
2014-Oct-17 18:33N 44°24' E 008°55'2 2.1
2014-Oct-17 17:33N 44°24' E 008°52'0 0.0
2014-Oct-17 16:33N 44°24' E 008°52'0 0.0
2014-Oct-17 15:33N 44°24' E 008°52'0 0.0
2014-Oct-17 14:15N 44°24' E 008°52'0 0.0
2014-Oct-17 13:30N 44°24' E 008°52'0 0.0
2014-Oct-17 12:33N 44°24' E 008°52'0 0.0
2014-Oct-17 11:30N 44°24' E 008°52'0 0.0
2014-Oct-17 10:33N 44°24' E 008°52'0 0.0
2014-Oct-17 09:33N 44°24' E 008°52'0 0.0
2014-Oct-17 08:33N 44°24' E 008°52'0 0.0
2014-Oct-17 07:33N 44°24' E 008°52'0 0.0
2014-Oct-17 06:33N 44°24' E 008°52'0 0.0
2014-Oct-17 05:33N 44°24' E 008°52'0 0.0
2014-Oct-17 04:33N 44°24' E 008°52'0 0.0
2014-Oct-17 03:33N 44°24' E 008°52'0 0.0
2014-Oct-17 02:34N 44°24' E 008°52'0 0.0
2014-Oct-17 01:34N 44°24' E 008°52'0 0.0
2014-Oct-17 00:34N 44°24' E 008°52'0 0.0
2014-Oct-16 23:34N 44°24' E 008°52'0 0.2
2014-Oct-16 22:33N 44°24' E 008°52'3 2.9
2014-Oct-16 21:34N 44°23' E 008°56'9 8.8
2014-Oct-16 20:33N 44°16' E 009°04'1312.7
2014-Oct-16 19:33N 44°07' E 009°16'1313.0
2014-Oct-16 18:33N 43°57' E 009°28'1312.8
2014-Oct-16 17:34N 43°48' E 009°39'1313.0
2014-Oct-16 16:34N 43°38' E 009°51'1312.7
2014-Oct-16 15:33N 43°28' E 010°02'1312.7
2014-Oct-16 14:34N 43°17' E 010°11'1312.4
2014-Oct-16 13:32N 43°06' E 010°20'21112.4
2014-Oct-15 20:28N 40°40' E 013°45'1212.6
2014-Oct-15 19:33N 40°33' E 013°57'1212.4
2014-Oct-15 18:33N 40°24' E 014°09'13412.9
2014-Oct-15 08:07N 38°29' E 015°36'912.4
2014-Oct-15 07:24N 38°21' E 015°42'1111.0
2014-Oct-15 06:26N 38°11' E 015°37'  
2014-Oct-12 06:33N 38°08' E 015°35'13212.0
2014-Oct-11 19:33N 40°08' E 014°20'1312.8
2014-Oct-11 18:32N 40°19' E 014°12'1312.8
2014-Oct-11 17:33N 40°29' E 014°03'25012.4
2014-Oct-10 21:28N 43°25' E 010°05'1112.0
2014-Oct-10 20:34N 43°33' E 009°54'1212.2
2014-Oct-10 19:34N 43°43' E 009°44'1212.1
2014-Oct-10 18:34N 43°52' E 009°34'1312.7
2014-Oct-10 17:33N 44°01' E 009°22'1212.4
2014-Oct-10 16:34N 44°10' E 009°09'1211.9
2014-Oct-10 15:33N 44°19' E 008°58'7 6.3
2014-Oct-10 14:28N 44°24' E 008°52'0 0.0
2014-Oct-10 12:19N 44°24' E 008°52'0 0.0
2014-Oct-10 11:31N 44°24' E 008°52'0 0.0
2014-Oct-10 10:30N 44°24' E 008°52'0 0.0
2014-Oct-10 09:29N 44°24' E 008°52'0 0.0
2014-Oct-10 08:33N 44°24' E 008°52'0 0.0
2014-Oct-10 07:33N 44°24' E 008°52'0 0.2
2014-Oct-10 06:33N 44°24' E 008°52'1 0.7
2014-Oct-10 05:33N 44°24' E 008°53'8 7.5
2014-Oct-10 04:33N 44°20' E 009°01'2 1.6
2014-Oct-10 03:33N 44°19' E 008°59'4 4.1
2014-Oct-10 02:33N 44°16' E 009°04'1110.8
2014-Oct-10 01:33N 44°08' E 009°14'  

Dump ship's entire track history